Time;durP1;ratioP1;P1;durP2;ratioP2;P2;SDS_P1;SDS_P2;PMS_P1;PMS_P2;Temp;Humidity;BMP_temperature;BMP_pressure;BME280_temperature;BME280_humidity;BME280_pressure;Samples;Min_cycle;Max_cycle;Signal;HPM_P1;HPM_P2
2022/06/30 00:00:37;;;;;;;9.57;5.63;;;;;;;;;;5103668;28;20279;-84
2022/06/30 00:03:03;;;;;;;6.97;5.30;;;17.30;99.90;;;;;;5104068;28;20179;-84
2022/06/30 00:05:29;;;;;;;6.97;5.57;;;;;;;;;;5114846;28;20196;-83
2022/06/30 00:07:55;;;;;;;6.20;5.40;;;;;;;;;;5116204;28;20229;-83
2022/06/30 00:10:22;;;;;;;7.80;5.27;;;17.10;99.90;;;;;;5106589;28;20238;-84
2022/06/30 00:12:48;;;;;;;7.93;5.30;;;;;;;;;;5104989;28;20177;-84
2022/06/30 00:15:14;;;;;;;6.73;5.10;;;;;;;;;;5103077;28;20282;-84
2022/06/30 00:17:40;;;;;;;7.40;4.60;;;;;;;;;;5101262;28;20184;-84
2022/06/30 00:20:07;;;;;;;5.90;5.40;;;17.20;99.90;;;;;;5100015;28;20634;-84
2022/06/30 00:22:33;;;;;;;5.07;4.60;;;16.90;99.90;;;;;;5103397;28;20236;-84
2022/06/30 00:24:59;;;;;;;7.70;5.03;;;;;;;;;;5099744;28;20634;-84
2022/06/30 00:27:25;;;;;;;7.43;5.17;;;;;;;;;;5100807;28;20191;-83
2022/06/30 00:29:50;;;;;;;12.07;4.70;;;16.90;99.90;;;;;;5099091;28;20548;-84
2022/06/30 00:32:16;;;;;;;7.87;5.43;;;16.70;99.90;;;;;;5100470;28;20193;-84
2022/06/30 00:34:42;;;;;;;9.30;4.83;;;16.90;99.90;;;;;;5100088;28;20633;-84
2022/06/30 00:37:08;;;;;;;7.80;5.10;;;;;;;;;;5098172;28;20188;-84
2022/06/30 00:39:34;;;;;;;5.93;5.33;;;16.70;99.90;;;;;;5098117;28;20525;-84
2022/06/30 00:42:01;;;;;;;9.27;4.70;;;;;;;;;;5098335;28;20291;-84
2022/06/30 00:44:27;;;;;;;6.63;4.33;;;16.90;99.90;;;;;;5097992;28;20207;-84
2022/06/30 00:46:53;;;;;;;5.80;4.57;;;16.80;99.90;;;;;;5098721;28;20168;-84
2022/06/30 00:49:20;;;;;;;5.73;4.80;;;16.90;99.90;;;;;;5098204;28;20172;-84
2022/06/30 00:51:46;;;;;;;5.90;4.80;;;16.80;99.90;;;;;;5096201;28;20672;-84
2022/06/30 00:54:12;;;;;;;8.47;4.77;;;16.80;99.90;;;;;;5097532;28;20183;-84
2022/06/30 00:56:43;;;;;;;7.93;4.87;;;16.60;99.90;;;;;;5096721;28;20180;-84
2022/06/30 00:59:12;;;;;;;8.23;4.87;;;16.70;99.90;;;;;;5096289;28;20176;-84
2022/06/30 01:01:38;;;;;;;6.20;5.40;;;;;;;;;;5101677;28;20234;-84
2022/06/30 01:04:06;;;;;;;7.17;5.13;;;16.60;99.90;;;;;;5102443;28;20236;-84
2022/06/30 01:06:32;;;;;;;5.87;4.80;;;16.60;99.90;;;;;;5103305;28;20240;-84
2022/06/30 01:08:58;;;;;;;8.90;5.23;;;16.60;99.90;;;;;;5104191;28;20180;-83
2022/06/30 01:14:09;;;;;;;6.67;4.90;;;16.60;99.90;;;;;;5101628;28;20172;-84
2022/06/30 01:16:39;;;;;;;5.60;4.60;;;16.60;99.90;;;;;;5099914;28;20176;-84
2022/06/30 01:19:05;;;;;;;7.60;5.30;;;16.60;99.90;;;;;;5101486;28;20154;-84
2022/06/30 01:21:31;;;;;;;6.53;4.87;;;;;;;;;;5101241;28;20197;-84
2022/06/30 01:23:58;;;;;;;5.53;4.30;;;;;;;;;;5106036;28;20198;-84
2022/06/30 01:26:24;;;;;;;5.50;4.57;;;16.50;99.90;;;;;;5115756;28;20191;-85
2022/06/30 01:28:51;;;;;;;5.03;4.53;;;16.50;99.90;;;;;;5114883;28;20194;-85
2022/06/30 01:31:17;;;;;;;5.43;4.93;;;;;;;;;;5103194;28;20200;-85
2022/06/30 01:33:44;;;;;;;5.87;4.53;;;16.50;99.90;;;;;;5103084;28;20206;-85
2022/06/30 01:36:10;;;;;;;8.43;4.57;;;;;;;;;;5103248;28;20169;-85
2022/06/30 01:38:36;;;;;;;7.30;4.87;;;16.40;99.90;;;;;;5105338;28;20164;-84
2022/06/30 01:41:02;;;;;;;6.27;4.80;;;;;;;;;;5116438;28;20199;-84
2022/06/30 01:43:27;;;;;;;5.40;4.60;;;16.40;99.90;;;;;;5115386;28;20251;-83
2022/06/30 01:45:53;;;;;;;5.23;4.60;;;;;;;;;;5101990;28;20238;-84
2022/06/30 01:48:19;;;;;;;6.27;4.67;;;16.30;99.90;;;;;;5103415;28;20177;-84
2022/06/30 01:50:45;;;;;;;5.43;4.83;;;;;;;;;;5101804;28;20258;-84
2022/06/30 01:53:11;;;;;;;10.33;4.90;;;16.20;99.90;;;;;;5108036;28;20172;-84
2022/06/30 01:55:37;;;;;;;9.63;4.90;;;;;;;;;;5099216;28;20181;-84
2022/06/30 01:58:04;;;;;;;5.93;4.97;;;;;;;;;;5099161;28;20271;-84
2022/06/30 02:00:31;;;;;;;9.47;4.97;;;16.30;99.90;;;;;;5099401;28;20337;-84
2022/06/30 02:02:57;;;;;;;7.03;5.80;;;;;;;;;;5099375;28;20176;-84
2022/06/30 02:05:24;;;;;;;6.17;4.87;;;16.20;99.90;;;;;;5100918;28;20200;-84
2022/06/30 02:07:51;;;;;;;7.60;5.67;;;16.20;99.90;;;;;;5098529;28;20177;-84
2022/06/30 02:10:19;;;;;;;6.63;5.07;;;16.20;99.90;;;;;;5100606;28;20195;-84
2022/06/30 02:12:46;;;;;;;6.23;5.10;;;16.20;99.90;;;;;;5099470;28;20172;-84
2022/06/30 02:15:24;;;;;;;10.73;5.40;;;16.20;99.90;;;;;;5099568;28;20180;-84
2022/06/30 02:17:52;;;;;;;8.07;5.17;;;16.10;99.90;;;;;;5098717;28;20228;-84
2022/06/30 02:20:21;;;;;;;7.67;4.73;;;16.20;99.90;;;;;;5100157;28;20196;-84
2022/06/30 02:22:49;;;;;;;5.83;5.23;;;16.20;99.90;;;;;;5099628;28;20193;-84
2022/06/30 02:25:16;;;;;;;7.57;5.27;;;16.10;99.90;;;;;;5100546;28;20207;-84
2022/06/30 02:27:41;;;;;;;6.20;4.83;;;16.10;99.90;;;;;;5099866;28;20180;-84
2022/06/30 02:30:08;;;;;;;7.90;4.67;;;15.90;99.90;;;;;;5101119;28;20176;-84
2022/06/30 02:32:34;;;;;;;8.50;5.03;;;16.00;99.90;;;;;;5100270;28;20183;-84
2022/06/30 02:35:00;;;;;;;7.27;5.10;;;15.90;99.90;;;;;;5099635;28;20184;-84
2022/06/30 02:37:26;;;;;;;5.33;4.80;;;;;;;;;;5098943;28;20542;-84
2022/06/30 02:39:51;;;;;;;5.97;4.93;;;15.90;99.90;;;;;;5099170;28;20633;-84
2022/06/30 02:42:18;;;;;;;5.43;4.90;;;;;;;;;;5102415;28;20206;-84
2022/06/30 02:44:44;;;;;;;8.33;5.10;;;15.80;99.90;;;;;;5103210;28;20283;-84
2022/06/30 02:47:09;;;;;;;5.67;5.10;;;15.70;99.90;;;;;;5102448;28;20199;-84
2022/06/30 02:49:37;;;;;;;5.97;4.97;;;;;;;;;;5101647;28;20179;-84
2022/06/30 02:52:03;;;;;;;6.10;5.50;;;15.70;99.90;;;;;;5102279;28;20195;-84
2022/06/30 02:54:29;;;;;;;6.10;5.30;;;15.70;99.90;;;;;;5101060;28;20185;-83
2022/06/30 02:56:54;;;;;;;8.63;5.57;;;15.70;99.90;;;;;;5102029;28;20227;-84
2022/06/30 02:59:21;;;;;;;6.40;5.40;;;;;;;;;;5101058;28;20650;-84
2022/06/30 03:01:46;;;;;;;7.60;5.07;;;15.60;99.90;;;;;;5100792;28;20333;-84
2022/06/30 03:04:12;;;;;;;6.67;5.40;;;;;;;;;;5097723;28;20294;-84
2022/06/30 03:06:38;;;;;;;8.10;5.70;;;15.60;99.90;;;;;;5097306;28;20186;-84
2022/06/30 03:09:04;;;;;;;6.53;5.07;;;;;;;;;;5107065;28;20255;-85
2022/06/30 03:11:31;;;;;;;8.00;5.70;;;15.60;99.90;;;;;;5110383;28;20196;-85
2022/06/30 03:13:57;;;;;;;6.57;5.33;;;15.60;99.90;;;;;;5114205;28;20179;-84
2022/06/30 03:16:23;;;;;;;5.20;4.70;;;;;;;;;;5104951;28;20263;-85
2022/06/30 03:18:49;;;;;;;6.83;5.00;;;15.50;99.90;;;;;;5103728;28;20180;-84
2022/06/30 03:21:14;;;;;;;6.23;4.97;;;15.50;99.90;;;;;;5102163;28;20200;-84
2022/06/30 03:23:40;;;;;;;6.57;4.77;;;15.50;99.90;;;;;;5103178;28;20188;-84
2022/06/30 03:26:06;;;;;;;7.73;5.50;;;15.50;99.90;;;;;;5102795;28;20184;-84
2022/06/30 03:28:32;;;;;;;9.27;5.63;;;;;;;;;;5101157;28;20233;-84
2022/06/30 03:30:59;;;;;;;7.70;5.37;;;15.40;99.90;;;;;;5102625;28;20192;-84
2022/06/30 03:33:25;;;;;;;7.93;5.30;;;15.50;99.90;;;;;;5102083;28;20172;-83
2022/06/30 03:35:51;;;;;;;5.90;4.73;;;15.40;99.90;;;;;;5112854;28;20192;-84
2022/06/30 03:38:17;;;;;;;5.93;5.30;;;15.50;99.90;;;;;;5121282;28;20165;-84
2022/06/30 03:40:43;;;;;;;9.33;5.40;;;15.50;99.90;;;;;;5108768;28;20214;-85
2022/06/30 03:43:09;;;;;;;5.90;5.30;;;;;;;;;;5104168;28;20187;-84
2022/06/30 03:45:35;;;;;;;7.83;5.33;;;15.40;99.90;;;;;;5104812;28;20208;-84
2022/06/30 03:48:05;;;;;;;7.87;5.40;;;15.40;99.90;;;;;;5103147;28;20264;-84
2022/06/30 03:50:32;;;;;;;9.07;6.27;;;15.30;99.90;;;;;;5104448;28;20341;-84
2022/06/30 03:52:58;;;;;;;8.40;6.17;;;15.30;99.90;;;;;;5103622;28;20173;-85
2022/06/30 03:55:25;;;;;;;6.83;5.70;;;15.30;99.90;;;;;;5104878;28;20269;-85
2022/06/30 03:57:51;;;;;;;8.03;5.57;;;15.30;99.90;;;;;;5105345;28;20176;-84
2022/06/30 04:00:17;;;;;;;7.87;5.77;;;15.30;99.90;;;;;;5103060;28;20184;-85
2022/06/30 04:02:46;;;;;;;11.03;5.30;;;15.20;99.90;;;;;;5102835;28;20567;-85
2022/06/30 04:05:12;;;;;;;11.87;5.37;;;15.30;99.90;;;;;;5103673;28;20704;-85
2022/06/30 04:07:45;;;;;;;6.67;5.03;;;15.30;99.90;;;;;;5102812;28;20184;-85
2022/06/30 04:10:12;;;;;;;6.00;4.47;;;15.30;99.90;;;;;;5102952;28;20180;-85
2022/06/30 04:12:38;;;;;;;6.00;4.37;;;15.30;99.90;;;;;;5103948;28;20180;-84
2022/06/30 04:15:05;;;;;;;5.83;4.67;;;15.30;99.90;;;;;;5105030;28;20200;-86
2022/06/30 04:17:34;;;;;;;6.10;4.80;;;15.40;99.90;;;;;;5104074;28;20267;-86
2022/06/30 04:20:05;;;;;;;9.00;4.43;;;15.40;99.90;;;;;;5103772;28;20180;-86
2022/06/30 04:22:31;;;;;;;7.07;5.40;;;15.40;99.90;;;;;;5102674;28;20180;-85
2022/06/30 04:24:57;;;;;;;4.97;4.47;;;15.50;99.90;;;;;;5103300;28;20208;-85
2022/06/30 04:27:23;;;;;;;7.17;4.93;;;15.50;99.90;;;;;;5102127;28;20196;-85
2022/06/30 04:29:49;;;;;;;5.40;4.57;;;;;;;;;;5103181;28;20172;-85
2022/06/30 04:34:59;;;;;;;4.50;4.10;;;15.70;99.90;;;;;;5104927;28;20175;-85
2022/06/30 04:37:25;;;;;;;7.10;4.33;;;15.70;99.90;;;;;;5103307;28;20209;-85
2022/06/30 04:41:23;;;;;;;5.27;4.37;;;15.80;99.90;;;;;;5103145;28;20187;-85
2022/06/30 04:42:36;;;;;;;9.00;5.13;;;15.80;99.90;;;;;;5103906;28;20180;-85
2022/06/30 04:45:02;;;;;;;8.43;4.53;;;;;;;;;;5107348;28;20223;-85
2022/06/30 04:47:28;;;;;;;8.90;4.20;;;16.00;99.90;;;;;;5107596;28;20186;-86
2022/06/30 04:49:54;;;;;;;7.03;4.00;;;;;;;;;;5104736;28;20177;-85
2022/06/30 04:52:20;;;;;;;5.20;3.87;;;16.10;99.90;;;;;;5111821;28;20574;-85
2022/06/30 04:54:46;;;;;;;7.03;3.97;;;16.20;99.90;;;;;;5110584;28;20215;-84
2022/06/30 04:57:12;;;;;;;5.50;4.07;;;;;;;;;;5098950;28;20186;-84
2022/06/30 04:59:37;;;;;;;4.47;3.83;;;16.30;99.90;;;;;;5100607;28;20250;-84
2022/06/30 05:02:03;;;;;;;4.77;3.80;;;;;;;;;;5098377;28;20220;-85
2022/06/30 05:04:29;;;;;;;8.60;3.80;;;;;;;;;;5096724;28;20267;-84
2022/06/30 05:06:55;;;;;;;5.90;3.60;;;16.50;99.90;;;;;;5097289;28;20187;-83
2022/06/30 05:09:21;;;;;;;4.80;3.80;;;;;;;;;;5097170;28;20176;-84
2022/06/30 05:11:47;;;;;;;7.03;3.90;;;16.60;99.90;;;;;;5096028;28;20228;-85
2022/06/30 05:14:12;;;;;;;4.27;3.17;;;16.60;99.90;;;;;;5095551;28;20650;-85
2022/06/30 05:16:38;;;;;;;3.37;3.07;;;;;;;;;;5098820;28;20583;-85
2022/06/30 05:19:04;;;;;;;4.23;3.47;;;16.80;99.90;;;;;;5100254;28;20207;-85
2022/06/30 05:21:30;;;;;;;4.87;3.30;;;16.90;99.90;;;;;;5098899;28;20196;-85
2022/06/30 05:26:40;;;;;;;6.40;3.60;;;16.90;99.90;;;;;;5100162;28;20164;-85
2022/06/30 05:29:06;;;;;;;4.73;2.93;;;17.00;99.90;;;;;;5100202;28;20168;-84
2022/06/30 05:31:32;;;;;;;5.80;3.50;;;;;;;;;;5098810;28;20684;-85
2022/06/30 05:33:57;;;;;;;8.43;3.47;;;17.10;99.90;;;;;;5098377;28;20176;-84
2022/06/30 05:36:23;;;;;;;6.90;3.13;;;17.10;99.90;;;;;;5099210;28;20198;-85
2022/06/30 05:38:49;;;;;;;5.67;3.13;;;17.20;99.90;;;;;;5097747;28;20229;-85
2022/06/30 05:41:15;;;;;;;3.70;3.27;;;;;;;;;;5099767;28;20525;-85
2022/06/30 05:43:41;;;;;;;6.07;3.50;;;17.40;99.90;;;;;;5097533;28;20207;-84
2022/06/30 05:46:07;;;;;;;6.47;3.27;;;;;;;;;;5104360;28;20211;-85
2022/06/30 05:48:33;;;;;;;6.13;3.47;;;17.60;99.90;;;;;;5117999;28;20191;-88
2022/06/30 05:50:58;;;;;;;6.17;3.50;;;17.60;99.90;;;;;;5113750;28;20537;-86
2022/06/30 05:53:24;;;;;;;10.37;4.17;;;;;;;;;;5099042;28;20199;-86
2022/06/30 05:55:50;;;;;;;4.17;3.17;;;17.80;99.90;;;;;;5100888;28;20212;-86
2022/06/30 05:58:18;;;;;;;4.17;3.10;;;17.80;99.90;;;;;;5103290;28;20176;-85
2022/06/30 06:00:44;;;;;;;7.60;3.47;;;17.80;99.90;;;;;;5102906;28;20200;-86
2022/06/30 06:03:10;;;;;;;9.07;3.60;;;;;;;;;;5103226;28;20185;-86
2022/06/30 06:05:36;;;;;;;7.80;3.30;;;17.90;99.90;;;;;;5103268;28;20211;-85
2022/06/30 06:08:06;;;;;;;9.00;3.60;;;18.00;99.90;;;;;;5101830;28;20269;-85
2022/06/30 06:10:31;;;;;;;5.57;3.20;;;18.10;99.90;;;;;;5103022;28;20201;-85
2022/06/30 06:12:57;;;;;;;5.63;3.40;;;;;;;;;;5104339;28;20210;-85
2022/06/30 06:15:28;;;;;;;5.47;3.97;;;18.10;99.90;;;;;;5102340;28;20189;-85
2022/06/30 06:17:54;;;;;;;11.07;3.70;;;18.20;99.90;;;;;;5103877;28;20171;-85
2022/06/30 06:20:20;;;;;;;7.50;3.70;;;18.30;99.90;;;;;;5104132;28;20205;-85
2022/06/30 06:22:46;;;;;;;10.30;4.03;;;;;;;;;;5105202;28;20265;-85
2022/06/30 06:25:13;;;;;;;9.03;3.57;;;18.40;99.90;;;;;;5105241;28;20215;-86
2022/06/30 06:27:41;;;;;;;9.17;3.00;;;18.50;99.90;;;;;;5107667;28;20209;-85
2022/06/30 06:30:09;;;;;;;4.70;2.83;;;18.70;99.90;;;;;;5109018;28;20208;-86
2022/06/30 06:32:36;;;;;;;4.10;3.00;;;18.70;99.90;;;;;;5105586;28;20712;-85
2022/06/30 06:35:03;;;;;;;5.20;2.70;;;18.80;99.90;;;;;;5101291;28;20268;-85
2022/06/30 06:37:28;;;;;;;6.00;2.97;;;18.90;99.90;;;;;;5101778;28;20189;-85
2022/06/30 06:39:55;;;;;;;5.40;3.00;;;19.00;99.90;;;;;;5102161;28;20213;-85
2022/06/30 06:42:20;;;;;;;5.97;3.03;;;19.10;99.90;;;;;;5102304;28;20218;-85
2022/06/30 06:44:49;;;;;;;3.70;3.00;;;;;;;;;;5103075;28;20244;-85
2022/06/30 06:47:15;;;;;;;5.17;2.70;;;19.30;99.90;;;;;;5103269;28;20173;-85
2022/06/30 06:49:44;;;;;;;4.97;2.97;;;19.30;99.90;;;;;;5103735;28;20215;-85
2022/06/30 06:52:09;;;;;;;5.87;3.30;;;19.40;99.90;;;;;;5101763;28;20580;-85
2022/06/30 06:54:36;;;;;;;6.67;3.50;;;;;;;;;;5101426;28;20671;-85
2022/06/30 06:57:01;;;;;;;3.57;2.80;;;19.60;99.90;;;;;;5103460;28;20182;-85
2022/06/30 06:59:27;;;;;;;4.03;2.50;;;;;;;;;;5101922;28;20206;-85
2022/06/30 07:01:53;;;;;;;4.07;3.03;;;19.90;99.90;;;;;;5103549;28;20196;-84
2022/06/30 07:04:19;;;;;;;5.63;3.03;;;;;;;;;;5102840;28;20739;-85
2022/06/30 07:06:48;;;;;;;3.67;2.87;;;20.00;99.90;;;;;;5104305;28;20176;-85
2022/06/30 07:09:13;;;;;;;6.50;3.07;;;20.10;99.90;;;;;;5102127;28;20174;-85
2022/06/30 07:11:39;;;;;;;11.03;3.17;;;;;;;;;;5103683;28;20198;-85
2022/06/30 07:14:05;;;;;;;5.03;3.53;;;20.30;99.90;;;;;;5102852;28;20175;-85
2022/06/30 07:16:31;;;;;;;3.17;2.87;;;20.40;99.90;;;;;;5103350;28;20182;-85
2022/06/30 07:18:57;;;;;;;7.13;2.90;;;;;;;;;;5102060;28;20176;-85
2022/06/30 07:21:23;;;;;;;4.80;2.87;;;20.80;99.90;;;;;;5103163;28;20613;-85
2022/06/30 07:23:49;;;;;;;4.23;3.53;;;;;;;;;;5102777;28;20188;-86
2022/06/30 07:26:15;;;;;;;6.13;3.33;;;21.00;99.90;;;;;;5102974;28;20200;-86
2022/06/30 07:28:42;;;;;;;4.00;2.67;;;;;;;;;;5105885;28;20177;-85
2022/06/30 07:31:08;;;;;;;4.50;3.13;;;21.40;99.90;;;;;;5107092;28;20221;-85
2022/06/30 07:33:35;;;;;;;5.50;3.23;;;21.50;99.90;;;;;;5107244;28;20177;-86
2022/06/30 07:36:01;;;;;;;4.27;2.80;;;21.70;99.90;;;;;;5107591;28;20527;-86
2022/06/30 07:38:27;;;;;;;7.30;3.30;;;;;;;;;;5110929;28;20175;-85
2022/06/30 07:40:53;;;;;;;7.10;3.20;;;21.90;99.90;;;;;;5105111;28;20196;-85
2022/06/30 07:43:18;;;;;;;6.23;3.63;;;22.00;99.90;;;;;;5103425;28;20191;-86
2022/06/30 07:45:44;;;;;;;8.20;2.97;;;22.10;99.90;;;;;;5102462;28;20301;-85
2022/06/30 07:48:10;;;;;;;4.27;2.77;;;;;;;;;;5102363;28;20176;-85
2022/06/30 07:50:36;;;;;;;5.87;3.27;;;;;;;;;;5100745;28;20204;-85
2022/06/30 07:53:02;;;;;;;3.23;2.93;;;22.40;99.90;;;;;;5099818;28;20191;-85
2022/06/30 07:55:27;;;;;;;6.63;3.10;;;22.60;99.90;;;;;;5097848;28;20696;-85
2022/06/30 07:57:53;;;;;;;5.90;3.00;;;;;;;;;;5105659;28;20188;-85
2022/06/30 08:00:24;;;;;;;7.77;3.37;;;;;;;;;;5121254;28;20199;-84
2022/06/30 08:02:50;;;;;;;7.00;3.17;;;22.90;99.90;;;;;;5117370;28;20176;-86
2022/06/30 08:05:16;;;;;;;6.23;2.80;;;23.10;99.90;;;;;;5111589;28;20192;-86
2022/06/30 08:07:42;;;;;;;3.90;2.67;;;;;;;;;;5109519;28;20244;-86
2022/06/30 08:10:08;;;;;;;6.47;2.80;;;23.40;99.90;;;;;;5104128;28;20177;-86
2022/06/30 08:12:35;;;;;;;7.27;2.60;;;23.40;99.90;;;;;;5104485;28;20196;-86
2022/06/30 08:15:01;;;;;;;4.90;2.60;;;23.50;99.90;;;;;;5102767;28;20188;-85
2022/06/30 08:17:28;;;;;;;3.37;2.93;;;23.50;99.90;;;;;;5104610;28;20206;-86
2022/06/30 08:19:53;;;;;;;4.50;2.73;;;23.60;99.90;;;;;;5104598;28;20196;-84
2022/06/30 08:22:19;;;;;;;7.83;2.70;;;23.60;99.90;;;;;;5106114;28;20217;-85
2022/06/30 08:24:45;;;;;;;4.10;2.70;;;23.60;99.90;;;;;;5104291;28;20279;-84
2022/06/30 08:27:11;;;;;;;7.83;2.80;;;23.70;99.90;;;;;;5106133;28;20172;-84
2022/06/30 08:29:36;;;;;;;5.97;2.97;;;23.80;99.90;;;;;;5105770;28;20196;-84
2022/06/30 08:32:04;;;;;;;3.70;2.50;;;23.90;99.90;;;;;;5104398;28;20201;-84
2022/06/30 08:34:30;;;;;;;4.30;2.60;;;24.00;99.90;;;;;;5105077;28;20656;-84
2022/06/30 08:36:56;;;;;;;11.40;4.03;;;24.10;99.90;;;;;;5106355;28;20179;-85
2022/06/30 08:42:07;;;;;;;7.53;3.00;;;24.30;99.90;;;;;;5106717;28;20736;-84
2022/06/30 08:44:36;;;;;;;5.57;2.60;;;24.40;99.90;;;;;;5104272;28;20201;-84
2022/06/30 08:47:05;;;;;;;5.17;2.80;;;24.50;99.90;;;;;;5104204;28;20180;-87
2022/06/30 08:49:31;;;;;;;4.03;2.80;;;24.60;99.90;;;;;;5104501;28;20183;-85
2022/06/30 08:51:58;;;;;;;5.57;2.90;;;24.70;99.90;;;;;;5105753;28;20188;-84
2022/06/30 08:54:26;;;;;;;5.27;2.63;;;24.80;99.90;;;;;;5104298;28;20199;-85
2022/06/30 08:56:54;;;;;;;11.50;3.00;;;24.90;99.90;;;;;;5106407;28;20171;-85
2022/06/30 08:59:22;;;;;;;5.37;2.30;;;24.90;99.90;;;;;;5105457;28;20180;-84
2022/06/30 09:01:48;;;;;;;4.60;2.77;;;25.00;99.90;;;;;;5104751;28;20658;-84
2022/06/30 09:04:14;;;;;;;7.53;2.60;;;25.10;99.90;;;;;;5106411;28;20260;-84
2022/06/30 09:06:44;;;;;;;5.97;2.63;;;25.30;99.90;;;;;;5105159;28;20204;-85
2022/06/30 09:09:10;;;;;;;5.03;2.47;;;25.40;99.90;;;;;;5104674;28;20206;-84
2022/06/30 09:11:49;;;;;;;5.17;2.30;;;25.50;99.90;;;;;;5107033;28;20188;-85
2022/06/30 09:14:39;;;;;;;6.40;2.67;;;25.70;99.90;;;;;;5107000;28;20162;-85
2022/06/30 09:17:12;;;;;;;4.90;2.10;;;25.90;99.90;;;;;;5105585;28;20161;-84
2022/06/30 09:19:55;;;;;;;5.47;2.10;;;25.90;99.90;;;;;;5106013;28;20168;-85
2022/06/30 09:22:36;;;;;;;5.87;3.07;;;26.00;99.90;;;;;;5106724;28;20190;-85
2022/06/30 09:25:10;;;;;;;3.57;1.90;;;26.20;99.90;;;;;;5105208;28;20210;-85
2022/06/30 09:27:38;;;;;;;5.77;2.10;;;26.30;99.90;;;;;;5107838;28;20168;-85
2022/06/30 09:30:24;;;;;;;4.37;2.17;;;26.30;99.90;;;;;;5106624;28;20240;-85
2022/06/30 09:32:53;;;;;;;3.20;1.80;;;26.40;99.90;;;;;;5107352;28;20179;-85
2022/06/30 09:35:22;;;;;;;6.73;2.30;;;26.60;99.90;;;;;;5108466;28;20241;-85
2022/06/30 09:37:59;;;;;;;5.00;2.23;;;26.70;99.90;;;;;;5108522;28;20513;-85
2022/06/30 09:41:04;;;;;;;5.27;2.30;;;26.80;99.90;;;;;;5109690;28;20200;-85
2022/06/30 09:43:41;;;;;;;3.67;1.90;;;26.90;99.90;;;;;;5113683;28;20177;-85
2022/06/30 09:46:08;;;;;;;3.60;2.30;;;27.00;99.90;;;;;;5101312;28;20217;-85
2022/06/30 09:48:38;;;;;;;5.30;2.17;;;27.00;99.90;;;;;;5101647;28;20174;-85
2022/06/30 09:51:04;;;;;;;6.23;2.43;;;27.20;99.90;;;;;;5101562;28;20528;-84
2022/06/30 09:53:31;;;;;;;5.10;2.40;;;27.30;99.90;;;;;;5101655;28;20179;-83
2022/06/30 09:56:13;;;;;;;5.70;2.17;;;27.40;99.90;;;;;;5100649;28;20307;-84
2022/06/30 09:58:42;;;;;;;3.80;2.10;;;27.60;99.90;;;;;;5100607;28;20552;-84
2022/06/30 10:01:09;;;;;;;4.47;2.30;;;27.70;99.90;;;;;;5100388;28;20192;-84
2022/06/30 10:03:47;;;;;;;7.27;2.63;;;27.80;99.90;;;;;;5097833;28;20638;-83
2022/06/30 10:06:17;;;;;;;7.63;2.30;;;27.80;99.90;;;;;;5097396;28;20188;-83
2022/06/30 10:08:44;;;;;;;4.67;1.97;;;27.90;99.90;;;;;;5112225;28;20205;-84
2022/06/30 10:11:10;;;;;;;2.17;1.97;;;27.90;99.90;;;;;;5118673;28;20179;-85
2022/06/30 10:13:39;;;;;;;8.17;1.90;;;28.00;99.90;;;;;;5107634;28;20172;-85
2022/06/30 10:16:07;;;;;;;5.17;2.50;;;28.00;99.90;;;;;;5106481;28;20210;-83
2022/06/30 10:18:37;;;;;;;4.20;2.00;;;28.00;99.90;;;;;;5107148;28;20218;-85
2022/06/30 10:21:04;;;;;;;3.60;2.20;;;28.10;99.90;;;;;;5107215;28;20294;-85
2022/06/30 10:23:31;;;;;;;5.43;2.47;;;28.10;99.90;;;;;;5104950;28;20194;-85
2022/06/30 10:25:57;;;;;;;5.97;2.30;;;28.10;99.90;;;;;;5105202;28;20595;-85
2022/06/30 10:28:25;;;;;;;4.03;2.30;;;28.30;99.90;;;;;;5104124;28;20180;-85
2022/06/30 10:31:17;;;;;;;6.93;2.40;;;28.30;99.90;;;;;;5104440;28;20196;-84
2022/06/30 10:33:58;;;;;;;7.10;2.10;;;28.50;99.90;;;;;;5102753;28;20214;-85
2022/06/30 10:36:39;;;;;;;6.23;2.57;;;28.70;99.90;;;;;;5102861;28;20176;-83
2022/06/30 10:39:35;;;;;;;3.70;1.97;;;28.80;99.90;;;;;;5101982;28;20184;-84
2022/06/30 10:42:01;;;;;;;7.73;2.20;;;28.80;99.90;;;;;;5104412;28;20205;-85
2022/06/30 10:44:29;;;;;;;4.00;2.07;;;29.00;99.90;;;;;;5103582;28;20196;-84
2022/06/30 10:46:57;;;;;;;3.87;1.97;;;29.20;99.90;;;;;;5103903;28;20176;-84
2022/06/30 10:49:24;;;;;;;5.73;2.10;;;29.30;99.90;;;;;;5103593;28;20177;-85
2022/06/30 10:51:54;;;;;;;3.17;2.30;;;29.30;99.90;;;;;;5105861;28;20645;-84
2022/06/30 10:54:43;;;;;;;4.27;2.13;;;29.30;99.90;;;;;;5105517;28;20177;-84
2022/06/30 10:57:09;;;;;;;4.10;2.07;;;29.40;99.90;;;;;;5104282;28;20182;-86
2022/06/30 10:59:41;;;;;;;4.60;2.20;;;29.50;99.90;;;;;;5103697;28;20183;-86
2022/06/30 11:02:07;;;;;;;4.17;2.17;;;29.50;99.90;;;;;;5107223;28;20222;-85
2022/06/30 11:04:37;;;;;;;4.13;2.07;;;29.70;99.90;;;;;;5108111;28;20578;-85
2022/06/30 11:07:14;;;;;;;4.57;2.40;;;29.90;99.90;;;;;;5109595;28;20176;-87
2022/06/30 11:09:54;;;;;;;3.87;2.00;;;30.00;99.90;;;;;;5108151;28;20176;-85
2022/06/30 11:12:29;;;;;;;4.83;2.40;;;30.10;99.90;;;;;;5109141;28;20196;-86
2022/06/30 11:14:58;;;;;;;7.93;2.00;;;30.20;99.90;;;;;;5111136;28;20178;-86
2022/06/30 11:17:26;;;;;;;5.27;3.10;;;30.30;99.90;;;;;;5109060;28;20187;-86
2022/06/30 11:20:05;;;;;;;4.43;2.40;;;30.40;99.90;;;;;;5109863;28;20233;-85
2022/06/30 11:22:32;;;;;;;3.13;2.27;;;30.30;99.90;;;;;;5108234;28;20251;-85
2022/06/30 11:25:02;;;;;;;4.13;2.57;;;30.40;99.90;;;;;;5109763;28;20295;-86
2022/06/30 11:27:29;;;;;;;6.97;2.73;;;30.30;99.90;;;;;;5108484;28;20160;-85
2022/06/30 11:30:03;;;;;;;4.30;2.07;;;30.40;99.90;;;;;;5107579;28;20208;-85
2022/06/30 11:32:29;;;;;;;4.50;2.40;;;30.50;99.90;;;;;;5107544;28;20210;-85
2022/06/30 11:34:57;;;;;;;5.30;2.20;;;30.60;99.90;;;;;;5107209;28;20176;-85
2022/06/30 11:37:26;;;;;;;4.03;2.10;;;30.60;99.90;;;;;;5106780;28;20183;-85
2022/06/30 11:40:15;;;;;;;5.60;2.10;;;30.70;99.90;;;;;;5107246;28;20191;-85
2022/06/30 11:42:40;;;;;;;3.33;2.30;;;30.70;99.90;;;;;;5105768;28;20182;-85
2022/06/30 11:45:21;;;;;;;7.30;2.40;;;30.80;99.90;;;;;;5106566;28;20206;-85
2022/06/30 11:48:03;;;;;;;5.10;2.10;;;30.90;99.90;;;;;;5107032;28;20181;-84
2022/06/30 11:50:29;;;;;;;5.70;2.20;;;31.00;99.90;;;;;;5105504;28;20211;-85
2022/06/30 11:53:00;;;;;;;6.00;2.40;;;31.10;99.90;;;;;;5105091;28;20177;-85
2022/06/30 11:55:28;;;;;;;4.93;2.50;;;31.20;99.90;;;;;;5105057;28;20323;-84
2022/06/30 11:57:54;;;;;;;6.73;2.50;;;31.30;99.90;;;;;;5103717;28;20521;-85
2022/06/30 12:00:24;;;;;;;6.00;2.40;;;31.40;99.90;;;;;;5105931;28;20233;-84
2022/06/30 12:02:51;;;;;;;3.23;2.20;;;31.40;99.90;;;;;;5104080;28;20169;-85
2022/06/30 12:05:20;;;;;;;3.13;2.33;;;31.50;99.90;;;;;;5105327;28;20205;-85
2022/06/30 12:07:47;;;;;;;4.87;2.10;;;31.60;99.90;;;;;;5103433;28;20164;-84
2022/06/30 12:10:16;;;;;;;6.33;2.27;;;31.70;99.90;;;;;;5104968;28;20256;-85
2022/06/30 12:12:44;;;;;;;4.90;2.33;;;31.80;99.90;;;;;;5106775;28;20175;-85
2022/06/30 12:15:14;;;;;;;5.07;1.90;;;31.90;99.90;;;;;;5106423;28;20182;-83
2022/06/30 12:17:46;;;;;;;6.30;2.50;;;31.90;99.90;;;;;;5119059;28;20179;-85
2022/06/30 12:20:14;;;;;;;4.73;2.30;;;32.00;99.90;;;;;;5110745;28;20183;-85
2022/06/30 12:22:48;;;;;;;2.90;2.37;;;31.90;99.90;;;;;;5106687;28;20168;-86
2022/06/30 12:25:15;;;;;;;6.03;2.20;;;32.00;99.90;;;;;;5108766;28;20219;-85
2022/06/30 12:27:51;;;;;;;5.13;2.30;;;32.00;99.90;;;;;;5107983;28;20165;-85
2022/06/30 12:30:20;;;;;;;3.60;1.90;;;32.00;99.90;;;;;;5107164;28;20184;-86
2022/06/30 12:32:57;;;;;;;4.53;2.60;;;32.00;99.90;;;;;;5108828;28;20641;-85
2022/06/30 12:35:24;;;;;;;9.60;2.50;;;32.00;99.90;;;;;;5106855;28;20196;-86
2022/06/30 12:37:51;;;;;;;3.20;2.23;;;32.20;99.90;;;;;;5106315;28;20185;-86
2022/06/30 12:40:21;;;;;;;5.17;2.40;;;32.30;99.90;;;;;;5108685;28;20170;-86
2022/06/30 12:42:52;;;;;;;3.03;2.07;;;32.30;99.90;;;;;;5108078;28;20264;-85
2022/06/30 12:45:44;;;;;;;3.90;2.37;;;32.40;99.90;;;;;;5109382;28;20206;-86
2022/06/30 12:48:11;;;;;;;5.97;2.20;;;32.40;99.90;;;;;;5108495;28;20174;-85
2022/06/30 12:50:39;;;;;;;1.90;1.80;;;32.40;99.90;;;;;;5111093;28;20252;-85
2022/06/30 12:53:23;;;;;;;3.87;2.27;;;32.40;99.90;;;;;;5109425;28;20177;-85
2022/06/30 12:56:08;;;;;;;6.20;2.47;;;32.50;99.90;;;;;;5105762;28;20207;-85
2022/06/30 12:58:48;;;;;;;4.53;1.97;;;32.60;99.90;;;;;;5105272;28;20235;-85
2022/06/30 13:01:19;;;;;;;5.23;1.90;;;32.70;99.90;;;;;;5105727;28;20201;-85
2022/06/30 13:03:47;;;;;;;4.70;2.17;;;32.80;99.90;;;;;;5106368;28;20164;-85
2022/06/30 13:06:13;;;;;;;4.40;2.10;;;32.60;99.90;;;;;;5104420;28;20544;-85
2022/06/30 13:08:39;;;;;;;2.77;2.17;;;32.40;99.90;;;;;;5103945;28;20238;-86
2022/06/30 13:11:08;;;;;;;7.80;2.30;;;32.20;99.90;;;;;;5104911;28;20275;-85
2022/06/30 13:13:34;;;;;;;6.03;2.30;;;32.30;99.90;;;;;;5104825;28;20179;-85
2022/06/30 13:15:59;;;;;;;6.63;2.50;;;32.30;99.90;;;;;;5106092;28;20183;-85
2022/06/30 13:18:25;;;;;;;4.47;2.33;;;32.30;99.90;;;;;;5104083;28;20550;-85
2022/06/30 13:20:51;;;;;;;4.83;2.20;;;32.10;99.60;;;;;;5106096;28;20221;-85